createdAt,value
2017-10-26T00:01:00.221Z,19.00
2017-10-26T00:03:28.536Z,18.90
2017-10-26T00:05:56.118Z,18.90
2017-10-26T00:08:23.773Z,19.00
2017-10-26T00:10:51.401Z,19.00
2017-10-26T00:13:19.063Z,18.80
2017-10-26T00:15:46.669Z,18.70
2017-10-26T00:18:14.291Z,18.90
2017-10-26T00:20:41.967Z,18.90
2017-10-26T00:23:09.542Z,19.00
2017-10-26T00:25:37.118Z,19.00
2017-10-26T00:28:04.733Z,18.90
2017-10-26T00:30:32.354Z,18.90
2017-10-26T00:32:59.902Z,18.70
2017-10-26T00:35:27.682Z,18.70
2017-10-26T00:37:55.950Z,18.60
2017-10-26T00:40:23.520Z,18.70
2017-10-26T00:42:51.854Z,19.00
2017-10-26T00:45:19.517Z,19.00
2017-10-26T00:47:47.278Z,19.00
2017-10-26T00:50:14.894Z,18.80
2017-10-26T00:52:43.272Z,19.20
2017-10-26T00:55:11.715Z,19.30
2017-10-26T00:57:39.393Z,19.30
2017-10-26T01:00:08.424Z,19.10
2017-10-26T01:02:36.925Z,19.10
2017-10-26T01:05:04.590Z,19.10
2017-10-26T01:07:32.230Z,19.20
2017-10-26T01:10:00.700Z,19.10
2017-10-26T01:12:29.159Z,19.20
2017-10-26T01:14:57.520Z,19.40
2017-10-26T01:17:25.071Z,19.40
2017-10-26T01:19:52.673Z,19.20
2017-10-26T01:22:21.032Z,19.00
2017-10-26T01:24:48.642Z,19.00
2017-10-26T01:27:16.248Z,19.00
2017-10-26T01:29:44.030Z,19.00
2017-10-26T01:32:12.385Z,18.70
2017-10-26T01:34:40.085Z,18.70
2017-10-26T01:37:08.041Z,18.80
2017-10-26T01:39:35.808Z,18.80
2017-10-26T01:42:04.289Z,19.00
2017-10-26T01:44:32.049Z,19.00
2017-10-26T01:46:59.763Z,18.90
2017-10-26T01:49:27.424Z,19.00
2017-10-26T01:51:55.102Z,19.20
2017-10-26T01:54:22.795Z,18.90
2017-10-26T01:56:50.484Z,18.70
2017-10-26T01:59:18.825Z,18.90
2017-10-26T02:01:46.363Z,18.90
2017-10-26T02:04:13.925Z,19.00
2017-10-26T02:06:41.619Z,19.00
2017-10-26T02:09:09.391Z,18.90
2017-10-26T02:11:37.892Z,18.80
2017-10-26T02:14:06.375Z,19.00
2017-10-26T02:16:34.831Z,18.80
2017-10-26T02:19:03.209Z,18.80
2017-10-26T02:21:30.766Z,18.80
2017-10-26T02:23:58.461Z,18.80
2017-10-26T02:26:26.812Z,18.50
2017-10-26T02:29:06.194Z,18.50
2017-10-26T02:31:36.482Z,18.40
2017-10-26T02:34:04.152Z,18.40
2017-10-26T02:36:31.805Z,18.60
2017-10-26T02:38:59.403Z,18.60
2017-10-26T02:41:27.674Z,18.90
2017-10-26T02:43:55.317Z,18.90
2017-10-26T02:46:23.562Z,18.60
2017-10-26T02:48:51.208Z,18.50
2017-10-26T02:51:18.795Z,18.50
2017-10-26T02:53:46.489Z,18.60
2017-10-26T02:56:14.166Z,18.60
2017-10-26T02:58:41.825Z,18.80
2017-10-26T03:01:09.417Z,18.90
2017-10-26T03:03:37.052Z,18.60
2017-10-26T03:06:04.614Z,18.60
2017-10-26T03:08:32.163Z,18.70
2017-10-26T03:11:00.515Z,19.00
2017-10-26T03:13:28.180Z,18.90
2017-10-26T03:15:55.801Z,19.00
2017-10-26T03:18:23.402Z,18.60
2017-10-26T03:20:50.922Z,18.90
2017-10-26T03:23:18.481Z,18.70
2017-10-26T03:25:46.258Z,19.00
2017-10-26T03:28:13.926Z,19.10
2017-10-26T03:30:41.489Z,19.30
2017-10-26T03:33:09.106Z,19.10
2017-10-26T03:35:36.778Z,19.10
2017-10-26T03:38:04.453Z,18.90
2017-10-26T03:40:32.096Z,18.80
2017-10-26T03:42:59.561Z,18.90
2017-10-26T03:45:27.320Z,19.00
2017-10-26T03:47:54.874Z,19.20
2017-10-26T03:50:23.257Z,19.50
2017-10-26T03:52:50.897Z,19.40
2017-10-26T03:55:19.191Z,19.50
2017-10-26T03:57:47.481Z,19.50
2017-10-26T04:00:15.146Z,19.50
2017-10-26T04:02:42.728Z,19.40
2017-10-26T04:05:10.407Z,19.40
2017-10-26T04:07:38.083Z,19.60
2017-10-26T04:10:05.636Z,19.60
2017-10-26T04:12:33.195Z,19.50
2017-10-26T04:15:00.771Z,19.50
2017-10-26T04:17:28.611Z,19.50
2017-10-26T04:19:56.160Z,19.60
2017-10-26T04:22:23.736Z,19.60
2017-10-26T04:24:51.419Z,19.50
2017-10-26T04:27:19.163Z,19.60
2017-10-26T04:29:46.781Z,19.60
2017-10-26T04:32:14.397Z,19.60
2017-10-26T04:34:42.039Z,19.30
2017-10-26T04:37:09.916Z,19.10
2017-10-26T04:39:37.684Z,19.10
2017-10-26T04:42:05.377Z,18.80
2017-10-26T04:44:33.769Z,19.10
2017-10-26T04:47:02.105Z,19.10
2017-10-26T04:49:29.704Z,19.10
2017-10-26T04:51:57.386Z,19.30
2017-10-26T04:54:25.036Z,19.10
2017-10-26T04:56:53.440Z,19.20
2017-10-26T04:59:21.070Z,19.20
2017-10-26T05:01:49.474Z,19.00
2017-10-26T05:04:17.161Z,19.00
2017-10-26T05:06:44.820Z,19.10
2017-10-26T05:09:12.546Z,19.10
2017-10-26T05:11:40.141Z,19.30
2017-10-26T05:14:08.291Z,19.30
2017-10-26T05:16:35.881Z,19.30
2017-10-26T05:19:03.551Z,19.10
2017-10-26T05:21:31.182Z,19.20
2017-10-26T05:23:58.819Z,19.10
2017-10-26T05:26:27.178Z,18.90
2017-10-26T05:28:54.747Z,18.90
2017-10-26T05:31:23.133Z,19.20
2017-10-26T05:33:51.572Z,19.10
2017-10-26T05:36:19.240Z,19.10
2017-10-26T05:38:46.848Z,19.30
2017-10-26T05:41:15.372Z,19.30
2017-10-26T05:43:43.015Z,19.30
2017-10-26T05:46:10.665Z,19.30
2017-10-26T05:48:39.117Z,19.20
2017-10-26T05:51:06.767Z,19.20
2017-10-26T05:53:34.415Z,19.10
2017-10-26T05:56:02.096Z,19.20
2017-10-26T05:58:29.770Z,19.20
2017-10-26T06:00:58.134Z,19.00
2017-10-26T06:03:25.870Z,19.00
2017-10-26T06:05:53.475Z,19.10
2017-10-26T06:08:21.832Z,18.80
2017-10-26T06:10:49.435Z,18.80
2017-10-26T06:13:17.696Z,19.00
2017-10-26T06:15:45.300Z,18.90
2017-10-26T06:18:12.927Z,19.00
2017-10-26T06:20:40.579Z,19.10
2017-10-26T06:23:08.341Z,19.10
2017-10-26T06:25:36.726Z,19.30
2017-10-26T06:28:04.382Z,19.30
2017-10-26T06:30:32.872Z,19.10
2017-10-26T06:33:01.232Z,19.30
2017-10-26T06:35:28.853Z,19.30
2017-10-26T06:37:56.474Z,19.20
2017-10-26T06:40:24.136Z,19.20
2017-10-26T06:42:51.872Z,19.30
2017-10-26T06:45:19.561Z,19.20
2017-10-26T06:47:47.966Z,19.10
2017-10-26T06:50:15.702Z,19.10
2017-10-26T06:52:44.061Z,19.30
2017-10-26T06:55:11.808Z,19.30
2017-10-26T06:57:39.473Z,19.30
2017-10-26T07:00:07.032Z,19.10
2017-10-26T07:02:34.656Z,19.30
2017-10-26T07:05:02.284Z,19.40
2017-10-26T07:07:30.661Z,19.50
2017-10-26T07:09:58.335Z,19.50
2017-10-26T07:12:25.967Z,19.60
2017-10-26T07:14:53.583Z,19.70
2017-10-26T07:17:21.364Z,19.70
2017-10-26T07:19:49.001Z,19.90
2017-10-26T07:22:16.530Z,19.70
2017-10-26T07:24:43.989Z,19.60
2017-10-26T07:27:11.770Z,19.80
2017-10-26T07:29:39.222Z,19.70
2017-10-26T07:32:06.709Z,19.40
2017-10-26T07:34:34.898Z,19.80
2017-10-26T07:37:02.343Z,19.80
2017-10-26T07:39:30.570Z,19.90
2017-10-26T07:41:58.048Z,19.90
2017-10-26T07:44:29.554Z,19.70
2017-10-26T07:46:57.005Z,19.90
2017-10-26T07:49:24.450Z,20.00
2017-10-26T07:51:51.969Z,19.60
2017-10-26T07:54:19.428Z,19.70
2017-10-26T07:56:46.886Z,20.00
2017-10-26T07:59:15.279Z,20.70
2017-10-26T08:01:43.484Z,20.40
2017-10-26T08:04:11.723Z,20.40
2017-10-26T08:06:39.649Z,20.30
2017-10-26T08:09:08.275Z,20.50
2017-10-26T08:11:35.979Z,20.70
2017-10-26T08:14:03.450Z,20.80
2017-10-26T08:16:30.891Z,19.60
2017-10-26T08:18:58.344Z,19.80
2017-10-26T08:21:25.801Z,20.00
2017-10-26T08:23:53.305Z,20.20
2017-10-26T08:26:20.750Z,20.30
2017-10-26T08:28:48.209Z,20.10
2017-10-26T08:31:15.661Z,20.00
2017-10-26T08:33:43.119Z,20.10
2017-10-26T08:36:10.579Z,20.10
2017-10-26T08:38:38.026Z,20.10
2017-10-26T08:41:05.477Z,20.10
2017-10-26T08:43:33.061Z,20.10
2017-10-26T08:46:00.522Z,20.50
2017-10-26T08:48:27.984Z,20.30
2017-10-26T08:50:55.441Z,20.20
2017-10-26T08:53:22.886Z,20.70
2017-10-26T08:55:50.361Z,21.00
2017-10-26T08:58:17.825Z,21.00
2017-10-26T09:00:45.261Z,20.70
2017-10-26T09:03:12.811Z,20.60
2017-10-26T09:05:40.265Z,20.30
2017-10-26T09:08:07.717Z,20.40
2017-10-26T09:10:35.620Z,20.60
2017-10-26T09:13:03.048Z,20.60
2017-10-26T09:15:30.514Z,21.20
2017-10-26T09:17:57.974Z,22.00
2017-10-26T09:20:25.433Z,22.30
2017-10-26T09:22:52.897Z,22.50
2017-10-26T09:25:20.355Z,22.10
2017-10-26T09:27:47.812Z,21.60
2017-10-26T09:30:15.249Z,21.70
2017-10-26T09:32:42.731Z,21.40
2017-10-26T09:35:10.201Z,21.00
2017-10-26T09:37:37.654Z,21.00
2017-10-26T09:40:05.125Z,21.10
2017-10-26T09:42:32.689Z,21.00
2017-10-26T09:45:00.123Z,21.10
2017-10-26T09:47:28.385Z,21.80
2017-10-26T09:49:56.794Z,21.80
2017-10-26T09:52:24.244Z,21.70
2017-10-26T09:54:51.678Z,21.90
2017-10-26T09:57:19.141Z,22.20
2017-10-26T09:59:46.682Z,22.60
2017-10-26T10:02:14.168Z,23.50
2017-10-26T10:04:41.639Z,23.80
2017-10-26T10:07:09.077Z,23.50
2017-10-26T10:09:37.348Z,23.50
2017-10-26T10:12:04.836Z,23.80
2017-10-26T10:14:32.284Z,23.40
2017-10-26T10:16:59.777Z,23.50
2017-10-26T10:19:28.552Z,23.50
2017-10-26T10:21:56.930Z,23.40
2017-10-26T10:24:25.163Z,22.50
2017-10-26T10:26:53.338Z,22.50
2017-10-26T10:29:20.898Z,22.10
2017-10-26T10:31:48.305Z,22.30
2017-10-26T10:34:15.766Z,22.20
2017-10-26T10:36:43.185Z,21.70
2017-10-26T10:39:10.652Z,22.30
2017-10-26T10:41:38.089Z,22.40
2017-10-26T10:44:05.552Z,22.20
2017-10-26T10:46:33.740Z,22.30
2017-10-26T10:49:01.215Z,21.50
2017-10-26T10:51:28.669Z,21.50
2017-10-26T10:53:56.916Z,21.90
2017-10-26T10:56:24.377Z,21.80
2017-10-26T10:58:51.869Z,22.00
2017-10-26T11:01:19.705Z,21.80
2017-10-26T11:03:47.164Z,22.70
2017-10-26T11:06:14.733Z,23.90
2017-10-26T11:08:42.190Z,23.40
2017-10-26T11:11:09.773Z,23.30
2017-10-26T11:13:37.260Z,23.10
2017-10-26T11:16:04.693Z,22.80
2017-10-26T11:18:32.993Z,23.40
2017-10-26T11:21:00.450Z,23.40
2017-10-26T11:23:27.894Z,24.20
2017-10-26T11:25:57.022Z,25.20
2017-10-26T11:28:24.447Z,25.20
2017-10-26T11:30:52.658Z,24.80
2017-10-26T11:33:20.110Z,24.80
2017-10-26T11:35:47.590Z,24.30
2017-10-26T11:38:15.112Z,24.60
2017-10-26T11:40:42.588Z,24.50
2017-10-26T11:43:10.144Z,23.70
2017-10-26T11:45:37.657Z,23.20
2017-10-26T11:48:05.116Z,23.40
2017-10-26T11:50:32.589Z,23.70
2017-10-26T11:53:00.813Z,24.00
2017-10-26T11:55:28.241Z,24.00
2017-10-26T11:57:55.737Z,23.90
2017-10-26T12:00:23.169Z,23.90
2017-10-26T12:02:50.649Z,23.40
2017-10-26T12:05:18.105Z,23.40
2017-10-26T12:07:45.543Z,23.20
2017-10-26T12:10:13.018Z,23.10
2017-10-26T12:12:41.477Z,22.40
2017-10-26T12:18:07.737Z,22.20
2017-10-26T12:20:35.732Z,22.10
2017-10-26T12:23:03.181Z,21.70
2017-10-26T12:25:30.845Z,22.20
2017-10-26T12:27:58.295Z,22.50
2017-10-26T12:30:45.551Z,23.20
2017-10-26T12:33:13.280Z,23.50
2017-10-26T12:38:35.617Z,24.00
2017-10-26T12:41:20.596Z,24.30
2017-10-26T12:47:33.275Z,22.90
2017-10-26T12:50:00.730Z,22.90
2017-10-26T12:52:28.178Z,23.60
2017-10-26T12:54:57.298Z,23.30
2017-10-26T12:57:24.767Z,23.30
2017-10-26T12:59:52.192Z,23.10
2017-10-26T13:02:19.672Z,22.80
2017-10-26T13:04:47.113Z,23.10
2017-10-26T13:07:14.695Z,23.10
2017-10-26T13:09:42.940Z,23.40
2017-10-26T13:12:10.404Z,23.40
2017-10-26T13:14:37.883Z,23.30
2017-10-26T13:17:05.322Z,22.20
2017-10-26T13:19:32.783Z,22.00
2017-10-26T13:22:00.264Z,22.60
2017-10-26T13:24:27.721Z,23.30
2017-10-26T13:26:55.157Z,22.90
2017-10-26T13:29:23.241Z,23.10
2017-10-26T13:31:50.722Z,23.90
2017-10-26T13:34:18.228Z,24.40
2017-10-26T13:36:45.689Z,24.40
2017-10-26T13:39:13.149Z,24.20
2017-10-26T13:41:40.627Z,24.50
2017-10-26T13:44:08.833Z,24.60
2017-10-26T13:46:36.287Z,24.60
2017-10-26T13:49:04.487Z,23.50
2017-10-26T13:51:31.925Z,23.40
2017-10-26T13:53:59.462Z,23.30
2017-10-26T13:56:27.673Z,23.90
2017-10-26T13:58:55.202Z,23.90
2017-10-26T14:01:23.448Z,24.50
2017-10-26T14:03:50.933Z,24.50
2017-10-26T14:06:19.147Z,24.00
2017-10-26T14:08:46.592Z,24.00
2017-10-26T14:11:14.072Z,24.20
2017-10-26T14:13:41.545Z,23.70
2017-10-26T14:16:08.971Z,23.50
2017-10-26T14:18:36.406Z,23.00
2017-10-26T14:21:04.618Z,23.10
2017-10-26T14:23:32.075Z,23.10
2017-10-26T14:25:59.529Z,22.80
2017-10-26T14:28:26.989Z,22.50
2017-10-26T14:30:54.567Z,21.50
2017-10-26T14:33:22.021Z,21.20
2017-10-26T14:35:49.459Z,21.30
2017-10-26T14:38:16.906Z,21.50
2017-10-26T14:40:44.404Z,21.70
2017-10-26T14:43:11.881Z,21.30
2017-10-26T14:45:39.309Z,21.70
2017-10-26T14:48:06.768Z,21.80
2017-10-26T14:50:34.256Z,22.10
2017-10-26T14:53:01.716Z,22.50
2017-10-26T14:55:29.201Z,22.10
2017-10-26T14:57:58.116Z,21.80
2017-10-26T15:00:25.581Z,21.70
2017-10-26T15:02:53.032Z,21.80
2017-10-26T15:05:20.495Z,21.50
2017-10-26T15:07:47.940Z,21.80
2017-10-26T15:10:15.606Z,21.70
2017-10-26T15:12:43.062Z,21.70
2017-10-26T15:15:10.502Z,21.90
2017-10-26T15:17:38.000Z,21.90
2017-10-26T15:20:05.462Z,21.60
2017-10-26T15:22:32.910Z,21.40
2017-10-26T15:25:00.370Z,21.20
2017-10-26T15:27:27.800Z,21.40
2017-10-26T15:29:55.403Z,21.40
2017-10-26T15:32:22.852Z,21.50
2017-10-26T15:34:50.301Z,21.70
2017-10-26T15:37:17.750Z,21.70
2017-10-26T15:39:45.211Z,21.20
2017-10-26T15:42:13.000Z,21.20
2017-10-26T15:44:40.454Z,21.40
2017-10-26T15:47:07.913Z,21.20
2017-10-26T15:49:36.130Z,21.20
2017-10-26T15:52:04.338Z,21.20
2017-10-26T15:54:31.793Z,21.10
2017-10-26T15:56:59.236Z,21.20
2017-10-26T15:59:26.695Z,21.20
2017-10-26T16:01:54.149Z,21.00
2017-10-26T16:04:21.609Z,21.40
2017-10-26T16:06:49.066Z,21.60
2017-10-26T16:09:16.531Z,21.40
2017-10-26T16:11:44.067Z,21.50
2017-10-26T16:14:12.283Z,21.90
2017-10-26T16:16:39.736Z,21.90
2017-10-26T16:19:12.251Z,22.10
2017-10-26T16:21:39.687Z,22.10
2017-10-26T16:24:07.133Z,22.10
2017-10-26T16:26:34.606Z,22.10
2017-10-26T16:29:02.061Z,22.10
2017-10-26T16:31:29.487Z,22.20
2017-10-26T16:33:57.526Z,22.10
2017-10-26T16:36:25.742Z,22.20
2017-10-26T16:38:53.194Z,22.20
2017-10-26T16:41:20.651Z,22.30
2017-10-26T16:43:48.113Z,22.10
2017-10-26T16:46:15.590Z,22.10
2017-10-26T16:51:16.922Z,22.20
2017-10-26T16:53:44.377Z,22.20
2017-10-26T16:56:11.843Z,22.20
2017-10-26T16:58:40.093Z,22.10
2017-10-26T17:01:08.308Z,22.20
2017-10-26T17:03:35.973Z,22.20
2017-10-26T17:06:04.233Z,22.30
2017-10-26T17:08:31.681Z,22.30
2017-10-26T17:10:59.158Z,22.30
2017-10-26T17:13:26.606Z,22.40
2017-10-26T17:15:54.203Z,22.30
2017-10-26T17:18:21.653Z,22.20
2017-10-26T17:20:49.117Z,22.30
2017-10-26T17:23:16.653Z,22.30
2017-10-26T17:25:44.113Z,22.20
2017-10-26T17:28:12.739Z,22.20
2017-10-26T17:30:40.254Z,22.30
2017-10-26T17:33:07.783Z,22.30
2017-10-26T17:35:36.017Z,22.20
2017-10-26T17:38:04.262Z,22.10
2017-10-26T17:40:32.269Z,22.10
2017-10-26T17:42:59.729Z,22.00
2017-10-26T17:45:27.173Z,22.00
2017-10-26T17:47:54.645Z,22.00
2017-10-26T17:50:22.116Z,22.00
2017-10-26T17:52:49.569Z,22.00
2017-10-26T17:55:17.029Z,22.00
2017-10-26T17:57:44.491Z,21.80
2017-10-26T18:00:12.000Z,21.90
2017-10-26T18:02:39.458Z,21.80
2017-10-26T18:05:07.025Z,21.70
2017-10-26T18:07:34.510Z,21.60
2017-10-26T18:10:02.705Z,21.60
2017-10-26T18:12:30.157Z,21.60
2017-10-26T18:14:58.393Z,21.30
2017-10-26T18:17:25.857Z,21.30
2017-10-26T18:19:53.320Z,21.40
2017-10-26T18:22:20.804Z,21.50
2017-10-26T18:24:48.254Z,21.50
2017-10-26T18:27:15.701Z,21.50
2017-10-26T18:29:43.160Z,21.30
2017-10-26T18:32:10.618Z,21.20
2017-10-26T18:34:38.085Z,21.00
2017-10-26T18:37:05.532Z,20.80
2017-10-26T18:39:32.996Z,20.70
2017-10-26T18:42:00.437Z,20.40
2017-10-26T18:44:27.903Z,20.70
2017-10-26T18:46:55.368Z,20.90
2017-10-26T18:49:22.814Z,21.00
2017-10-26T18:51:50.300Z,20.80
2017-10-26T18:54:17.733Z,20.90
2017-10-26T18:56:45.186Z,21.00
2017-10-26T18:59:12.626Z,21.10
2017-10-26T19:01:40.079Z,21.20
2017-10-26T19:04:07.522Z,21.10
2017-10-26T19:06:34.970Z,21.10
2017-10-26T19:09:03.185Z,20.70
2017-10-26T19:11:30.977Z,20.80
2017-10-26T19:13:58.417Z,20.70
2017-10-26T19:16:25.857Z,20.50
2017-10-26T19:18:53.502Z,20.50
2017-10-26T19:21:20.961Z,20.60
2017-10-26T19:23:48.432Z,20.60
2017-10-26T19:26:15.911Z,20.60
2017-10-26T19:28:43.362Z,20.70
2017-10-26T19:31:10.825Z,20.50
2017-10-26T19:33:38.269Z,20.50
2017-10-26T19:36:05.741Z,20.60
2017-10-26T19:38:34.126Z,20.70
2017-10-26T19:41:01.582Z,20.80
2017-10-26T19:43:29.043Z,20.70
2017-10-26T19:45:56.501Z,20.70
2017-10-26T19:48:23.986Z,20.70
2017-10-26T19:50:51.438Z,20.70
2017-10-26T19:53:18.872Z,20.50
2017-10-26T19:55:46.310Z,20.40
2017-10-26T19:58:13.754Z,20.50
2017-10-26T20:00:41.239Z,20.50
2017-10-26T20:03:08.679Z,20.20
2017-10-26T20:05:36.343Z,20.10
2017-10-26T20:08:03.804Z,20.00
2017-10-26T20:10:31.286Z,20.00
2017-10-26T20:12:58.734Z,20.00
2017-10-26T20:15:26.170Z,20.20
2017-10-26T20:17:53.609Z,20.20
2017-10-26T20:20:21.066Z,20.00
2017-10-26T20:22:48.528Z,20.00
2017-10-26T20:25:16.009Z,20.20
2017-10-26T20:27:43.550Z,20.40
2017-10-26T20:30:11.605Z,20.30
2017-10-26T20:32:39.065Z,20.30
2017-10-26T20:35:06.518Z,20.40
2017-10-26T20:37:34.720Z,20.30
2017-10-26T20:40:02.451Z,20.30
2017-10-26T20:42:30.659Z,20.30
2017-10-26T20:44:58.139Z,20.30
2017-10-26T20:47:25.582Z,20.40
2017-10-26T20:49:58.680Z,20.40
2017-10-26T20:55:33.515Z,20.30
2017-10-26T20:58:06.913Z,20.20
2017-10-26T21:00:40.237Z,20.10
2017-10-26T21:03:24.398Z,20.00
2017-10-26T21:05:57.454Z,20.00
2017-10-26T21:08:30.639Z,20.00
2017-10-26T21:11:03.870Z,20.10
2017-10-26T21:13:37.044Z,20.00
2017-10-26T21:16:04.502Z,20.10
2017-10-26T21:18:31.978Z,20.00
2017-10-26T21:20:59.439Z,19.70
2017-10-26T21:23:26.967Z,19.60
2017-10-26T21:25:54.566Z,19.70
2017-10-26T21:28:22.006Z,19.60
2017-10-26T21:30:49.466Z,19.60
2017-10-26T21:33:16.889Z,19.50
2017-10-26T21:35:44.362Z,19.50
2017-10-26T21:38:11.833Z,19.50
2017-10-26T21:40:39.274Z,19.60
2017-10-26T21:43:06.711Z,19.60
2017-10-26T21:45:34.193Z,19.60
2017-10-26T21:48:01.668Z,19.70
2017-10-26T21:50:29.128Z,19.40
2017-10-26T21:52:56.588Z,18.60
2017-10-26T21:55:24.045Z,18.60
2017-10-26T21:57:51.489Z,18.60
2017-10-26T22:00:18.945Z,18.70
2017-10-26T22:02:46.394Z,18.60
2017-10-26T22:05:13.865Z,18.70
2017-10-26T22:07:41.398Z,19.00
2017-10-26T22:10:08.858Z,18.90
2017-10-26T22:12:36.359Z,19.00
2017-10-26T22:15:03.829Z,19.20
2017-10-26T22:17:31.282Z,19.10
2017-10-26T22:19:58.743Z,19.00
2017-10-26T22:22:26.202Z,19.00
2017-10-26T22:24:53.726Z,19.10
2017-10-26T22:27:21.199Z,19.20
2017-10-26T22:29:48.655Z,19.10
2017-10-26T22:32:16.117Z,19.00
2017-10-26T22:34:43.577Z,18.90
2017-10-26T22:37:11.050Z,18.60
2017-10-26T22:39:38.504Z,18.90
2017-10-26T22:42:06.694Z,18.70
2017-10-26T22:44:34.931Z,18.60
2017-10-26T22:47:02.426Z,18.50
2017-10-26T22:49:29.907Z,18.80
2017-10-26T22:51:58.129Z,18.60
2017-10-26T22:54:25.580Z,18.50
2017-10-26T22:56:53.039Z,18.10
2017-10-26T22:59:20.500Z,18.40
2017-10-26T23:01:48.029Z,18.70
2017-10-26T23:04:15.444Z,18.60
2017-10-26T23:06:43.661Z,18.60
2017-10-26T23:09:11.101Z,18.60
2017-10-26T23:11:38.533Z,18.60
2017-10-26T23:14:06.765Z,18.60
2017-10-26T23:16:34.986Z,18.30
2017-10-26T23:19:03.192Z,18.30
2017-10-26T23:21:30.641Z,18.30
2017-10-26T23:23:58.182Z,18.40
2017-10-26T23:26:26.443Z,18.50
2017-10-26T23:28:53.902Z,18.50
2017-10-26T23:31:21.402Z,18.50
2017-10-26T23:33:48.852Z,18.20
2017-10-26T23:36:16.283Z,17.60
2017-10-26T23:38:44.492Z,18.20
2017-10-26T23:41:11.941Z,18.20
2017-10-26T23:43:39.389Z,18.10
2017-10-26T23:46:07.617Z,18.40
2017-10-26T23:48:35.057Z,18.40
2017-10-26T23:51:02.502Z,18.50
2017-10-26T23:53:29.940Z,18.50
2017-10-26T23:55:58.313Z,18.40
2017-10-26T23:58:25.761Z,17.90
